sensor_id;sensor_type;location;lat;lon;timestamp;temperature;humidity
23063;DHT22;11699;43.704;10.430;2023-07-09T00:01:13;24.80;99.90
23063;DHT22;11699;43.704;10.430;2023-07-09T00:03:40;24.70;99.90
23063;DHT22;11699;43.704;10.430;2023-07-09T00:06:08;24.80;99.90
23063;DHT22;11699;43.704;10.430;2023-07-09T00:08:37;25.00;99.90
23063;DHT22;11699;43.704;10.430;2023-07-09T00:11:06;25.00;99.90
23063;DHT22;11699;43.704;10.430;2023-07-09T00:13:35;24.90;99.90
23063;DHT22;11699;43.704;10.430;2023-07-09T00:16:10;24.80;99.90
23063;DHT22;11699;43.704;10.430;2023-07-09T00:18:38;24.80;99.90
23063;DHT22;11699;43.704;10.430;2023-07-09T00:21:05;24.90;99.90
23063;DHT22;11699;43.704;10.430;2023-07-09T00:23:31;24.80;99.90
23063;DHT22;11699;43.704;10.430;2023-07-09T00:25:59;24.80;99.90
23063;DHT22;11699;43.704;10.430;2023-07-09T00:28:28;24.50;99.90
23063;DHT22;11699;43.704;10.430;2023-07-09T00:30:57;24.40;99.90
23063;DHT22;11699;43.704;10.430;2023-07-09T00:33:24;24.20;99.90
23063;DHT22;11699;43.704;10.430;2023-07-09T00:35:57;24.20;99.90
23063;DHT22;11699;43.704;10.430;2023-07-09T00:38:24;24.10;99.90
23063;DHT22;11699;43.704;10.430;2023-07-09T00:41:00;23.80;99.90
23063;DHT22;11699;43.704;10.430;2023-07-09T00:43:30;23.80;99.90
23063;DHT22;11699;43.704;10.430;2023-07-09T00:49:10;24.20;99.90
23063;DHT22;11699;43.704;10.430;2023-07-09T00:51:44;24.30;99.90
23063;DHT22;11699;43.704;10.430;2023-07-09T00:54:18;24.20;99.90
23063;DHT22;11699;43.704;10.430;2023-07-09T00:56:49;24.10;99.90
23063;DHT22;11699;43.704;10.430;2023-07-09T00:59:21;24.10;99.90
23063;DHT22;11699;43.704;10.430;2023-07-09T01:01:49;24.10;99.90
23063;DHT22;11699;43.704;10.430;2023-07-09T01:04:19;24.20;99.90
23063;DHT22;11699;43.704;10.430;2023-07-09T01:06:51;24.30;99.90
23063;DHT22;11699;43.704;10.430;2023-07-09T01:09:19;24.10;99.90
23063;DHT22;11699;43.704;10.430;2023-07-09T01:11:46;24.20;99.90
23063;DHT22;11699;43.704;10.430;2023-07-09T01:14:15;24.20;99.90
23063;DHT22;11699;43.704;10.430;2023-07-09T01:16:48;24.30;99.90
23063;DHT22;11699;43.704;10.430;2023-07-09T01:19:23;24.20;99.90
23063;DHT22;11699;43.704;10.430;2023-07-09T01:21:54;24.20;99.90
23063;DHT22;11699;43.704;10.430;2023-07-09T01:24:48;24.10;99.90
23063;DHT22;11699;43.704;10.430;2023-07-09T01:27:17;23.90;99.90
23063;DHT22;11699;43.704;10.430;2023-07-09T01:29:45;23.90;99.90
23063;DHT22;11699;43.704;10.430;2023-07-09T01:32:16;23.80;99.90
23063;DHT22;11699;43.704;10.430;2023-07-09T01:34:45;24.00;99.90
23063;DHT22;11699;43.704;10.430;2023-07-09T01:37:15;24.00;99.90
23063;DHT22;11699;43.704;10.430;2023-07-09T01:39:43;24.00;99.90
23063;DHT22;11699;43.704;10.430;2023-07-09T01:42:10;23.90;99.90
23063;DHT22;11699;43.704;10.430;2023-07-09T01:44:39;23.80;99.90
23063;DHT22;11699;43.704;10.430;2023-07-09T01:47:06;23.80;99.90
23063;DHT22;11699;43.704;10.430;2023-07-09T01:49:33;23.80;99.90
23063;DHT22;11699;43.704;10.430;2023-07-09T01:52:01;23.80;99.90
23063;DHT22;11699;43.704;10.430;2023-07-09T01:54:31;23.70;99.90
23063;DHT22;11699;43.704;10.430;2023-07-09T01:57:14;23.80;99.90
23063;DHT22;11699;43.704;10.430;2023-07-09T01:59:42;23.60;99.90
23063;DHT22;11699;43.704;10.430;2023-07-09T02:02:10;23.50;99.90
23063;DHT22;11699;43.704;10.430;2023-07-09T02:04:46;23.50;99.90
23063;DHT22;11699;43.704;10.430;2023-07-09T02:07:14;23.50;99.90
23063;DHT22;11699;43.704;10.430;2023-07-09T02:09:43;23.50;99.90
23063;DHT22;11699;43.704;10.430;2023-07-09T02:12:11;23.50;99.90
23063;DHT22;11699;43.704;10.430;2023-07-09T02:14:39;23.40;99.90
23063;DHT22;11699;43.704;10.430;2023-07-09T02:17:07;23.30;99.90
23063;DHT22;11699;43.704;10.430;2023-07-09T02:19:34;23.30;99.90
23063;DHT22;11699;43.704;10.430;2023-07-09T02:22:02;23.40;99.90
23063;DHT22;11699;43.704;10.430;2023-07-09T02:24:29;23.40;99.90
23063;DHT22;11699;43.704;10.430;2023-07-09T02:27:00;23.30;99.90
23063;DHT22;11699;43.704;10.430;2023-07-09T02:29:28;23.20;99.90
23063;DHT22;11699;43.704;10.430;2023-07-09T02:31:57;23.20;99.90
23063;DHT22;11699;43.704;10.430;2023-07-09T02:34:25;23.20;99.90
23063;DHT22;11699;43.704;10.430;2023-07-09T02:36:53;23.10;99.90
23063;DHT22;11699;43.704;10.430;2023-07-09T02:39:21;23.10;99.90
23063;DHT22;11699;43.704;10.430;2023-07-09T02:41:49;23.10;99.90
23063;DHT22;11699;43.704;10.430;2023-07-09T02:44:18;23.10;99.90
23063;DHT22;11699;43.704;10.430;2023-07-09T02:46:46;23.10;99.90
23063;DHT22;11699;43.704;10.430;2023-07-09T02:49:14;23.00;99.90
23063;DHT22;11699;43.704;10.430;2023-07-09T02:51:41;22.90;99.90
23063;DHT22;11699;43.704;10.430;2023-07-09T02:54:09;22.90;99.90
23063;DHT22;11699;43.704;10.430;2023-07-09T02:56:36;23.00;99.90
23063;DHT22;11699;43.704;10.430;2023-07-09T02:59:03;23.00;99.90
23063;DHT22;11699;43.704;10.430;2023-07-09T03:01:33;23.00;99.90
23063;DHT22;11699;43.704;10.430;2023-07-09T03:04:02;23.10;99.90
23063;DHT22;11699;43.704;10.430;2023-07-09T03:06:30;23.20;99.90
23063;DHT22;11699;43.704;10.430;2023-07-09T03:08:59;23.30;99.90
23063;DHT22;11699;43.704;10.430;2023-07-09T03:11:28;23.30;99.90
23063;DHT22;11699;43.704;10.430;2023-07-09T03:13:55;23.20;99.90
23063;DHT22;11699;43.704;10.430;2023-07-09T03:16:22;23.10;99.90
23063;DHT22;11699;43.704;10.430;2023-07-09T03:18:50;23.20;99.90
23063;DHT22;11699;43.704;10.430;2023-07-09T03:21:17;23.20;99.90
23063;DHT22;11699;43.704;10.430;2023-07-09T03:23:45;23.30;99.90
23063;DHT22;11699;43.704;10.430;2023-07-09T03:26:12;23.20;99.90
23063;DHT22;11699;43.704;10.430;2023-07-09T03:28:39;23.00;99.90
23063;DHT22;11699;43.704;10.430;2023-07-09T03:31:06;23.00;99.90
23063;DHT22;11699;43.704;10.430;2023-07-09T03:33:33;23.10;99.90
23063;DHT22;11699;43.704;10.430;2023-07-09T03:36:02;23.00;99.90
23063;DHT22;11699;43.704;10.430;2023-07-09T03:38:30;23.10;99.90
23063;DHT22;11699;43.704;10.430;2023-07-09T03:40:58;23.20;99.90
23063;DHT22;11699;43.704;10.430;2023-07-09T03:43:25;23.20;99.90
23063;DHT22;11699;43.704;10.430;2023-07-09T03:45:52;23.20;99.90
23063;DHT22;11699;43.704;10.430;2023-07-09T03:48:20;23.00;99.90
23063;DHT22;11699;43.704;10.430;2023-07-09T03:50:48;23.00;99.90
23063;DHT22;11699;43.704;10.430;2023-07-09T03:53:17;22.80;99.90
23063;DHT22;11699;43.704;10.430;2023-07-09T03:55:46;22.90;99.90
23063;DHT22;11699;43.704;10.430;2023-07-09T03:58:13;22.80;99.90
23063;DHT22;11699;43.704;10.430;2023-07-09T04:00:40;22.80;99.90
23063;DHT22;11699;43.704;10.430;2023-07-09T04:03:07;22.90;99.90
23063;DHT22;11699;43.704;10.430;2023-07-09T04:05:36;23.00;99.90
23063;DHT22;11699;43.704;10.430;2023-07-09T04:08:03;23.10;99.90
23063;DHT22;11699;43.704;10.430;2023-07-09T04:10:32;23.10;99.90
23063;DHT22;11699;43.704;10.430;2023-07-09T04:13:00;22.90;99.90
23063;DHT22;11699;43.704;10.430;2023-07-09T04:15:27;22.90;99.90
23063;DHT22;11699;43.704;10.430;2023-07-09T04:17:54;22.80;99.90
23063;DHT22;11699;43.704;10.430;2023-07-09T04:20:22;22.70;99.90
23063;DHT22;11699;43.704;10.430;2023-07-09T04:22:49;22.60;99.90
23063;DHT22;11699;43.704;10.430;2023-07-09T04:25:16;22.60;99.90
23063;DHT22;11699;43.704;10.430;2023-07-09T04:27:45;22.70;99.90
23063;DHT22;11699;43.704;10.430;2023-07-09T04:30:14;22.80;99.90
23063;DHT22;11699;43.704;10.430;2023-07-09T04:32:42;22.70;99.90
23063;DHT22;11699;43.704;10.430;2023-07-09T04:35:10;22.80;99.90
23063;DHT22;11699;43.704;10.430;2023-07-09T04:37:38;22.80;99.90
23063;DHT22;11699;43.704;10.430;2023-07-09T04:40:06;22.70;99.90
23063;DHT22;11699;43.704;10.430;2023-07-09T04:42:36;22.80;99.90
23063;DHT22;11699;43.704;10.430;2023-07-09T04:45:08;22.80;99.90
23063;DHT22;11699;43.704;10.430;2023-07-09T04:47:37;22.90;99.90
23063;DHT22;11699;43.704;10.430;2023-07-09T04:50:05;22.90;99.90
23063;DHT22;11699;43.704;10.430;2023-07-09T04:52:33;23.00;99.90
23063;DHT22;11699;43.704;10.430;2023-07-09T04:55:00;23.10;99.90
23063;DHT22;11699;43.704;10.430;2023-07-09T04:57:28;23.20;99.90
23063;DHT22;11699;43.704;10.430;2023-07-09T04:59:55;23.30;99.90
23063;DHT22;11699;43.704;10.430;2023-07-09T05:02:24;23.30;99.90
23063;DHT22;11699;43.704;10.430;2023-07-09T05:04:51;23.50;99.90
23063;DHT22;11699;43.704;10.430;2023-07-09T05:07:18;23.60;99.90
23063;DHT22;11699;43.704;10.430;2023-07-09T05:09:45;23.70;99.90
23063;DHT22;11699;43.704;10.430;2023-07-09T05:12:13;23.80;99.90
23063;DHT22;11699;43.704;10.430;2023-07-09T05:14:40;24.00;99.90
23063;DHT22;11699;43.704;10.430;2023-07-09T05:17:08;24.00;99.90
23063;DHT22;11699;43.704;10.430;2023-07-09T05:19:36;24.10;99.90
23063;DHT22;11699;43.704;10.430;2023-07-09T05:22:03;24.20;99.90
23063;DHT22;11699;43.704;10.430;2023-07-09T05:24:31;24.30;99.90
23063;DHT22;11699;43.704;10.430;2023-07-09T05:26:58;24.30;99.90
23063;DHT22;11699;43.704;10.430;2023-07-09T05:29:25;24.40;99.90
23063;DHT22;11699;43.704;10.430;2023-07-09T05:31:53;24.60;99.90
23063;DHT22;11699;43.704;10.430;2023-07-09T05:34:20;24.60;99.90
23063;DHT22;11699;43.704;10.430;2023-07-09T05:36:49;24.60;99.90
23063;DHT22;11699;43.704;10.430;2023-07-09T05:39:16;24.60;99.90
23063;DHT22;11699;43.704;10.430;2023-07-09T05:41:43;24.70;99.90
23063;DHT22;11699;43.704;10.430;2023-07-09T05:44:11;24.80;99.90
23063;DHT22;11699;43.704;10.430;2023-07-09T05:46:38;24.80;99.90
23063;DHT22;11699;43.704;10.430;2023-07-09T05:49:06;25.00;99.90
23063;DHT22;11699;43.704;10.430;2023-07-09T05:51:33;25.10;99.90
23063;DHT22;11699;43.704;10.430;2023-07-09T05:54:01;25.20;99.90
23063;DHT22;11699;43.704;10.430;2023-07-09T05:56:29;25.30;99.90
23063;DHT22;11699;43.704;10.430;2023-07-09T05:58:56;25.40;99.90
23063;DHT22;11699;43.704;10.430;2023-07-09T06:01:23;25.40;99.90
23063;DHT22;11699;43.704;10.430;2023-07-09T06:03:51;25.50;99.90
23063;DHT22;11699;43.704;10.430;2023-07-09T06:06:19;25.50;99.90
23063;DHT22;11699;43.704;10.430;2023-07-09T06:08:46;25.50;99.90
23063;DHT22;11699;43.704;10.430;2023-07-09T06:11:15;25.50;99.90
23063;DHT22;11699;43.704;10.430;2023-07-09T06:13:43;25.60;99.90
23063;DHT22;11699;43.704;10.430;2023-07-09T06:16:10;25.70;99.90
23063;DHT22;11699;43.704;10.430;2023-07-09T06:18:37;25.70;99.90
23063;DHT22;11699;43.704;10.430;2023-07-09T06:21:04;25.80;99.90
23063;DHT22;11699;43.704;10.430;2023-07-09T06:23:33;25.90;99.90
23063;DHT22;11699;43.704;10.430;2023-07-09T06:26:00;26.00;99.90
23063;DHT22;11699;43.704;10.430;2023-07-09T06:28:28;26.00;99.90
23063;DHT22;11699;43.704;10.430;2023-07-09T06:30:56;26.00;99.90
23063;DHT22;11699;43.704;10.430;2023-07-09T06:33:25;26.10;99.90
23063;DHT22;11699;43.704;10.430;2023-07-09T06:35:54;26.20;99.90
23063;DHT22;11699;43.704;10.430;2023-07-09T06:38:22;26.20;99.90
23063;DHT22;11699;43.704;10.430;2023-07-09T06:40:49;26.30;99.90
23063;DHT22;11699;43.704;10.430;2023-07-09T06:43:17;26.50;99.90
23063;DHT22;11699;43.704;10.430;2023-07-09T06:45:54;26.60;99.90
23063;DHT22;11699;43.704;10.430;2023-07-09T06:48:21;26.60;99.90
23063;DHT22;11699;43.704;10.430;2023-07-09T06:50:49;26.60;99.90
23063;DHT22;11699;43.704;10.430;2023-07-09T06:53:16;26.80;99.90
23063;DHT22;11699;43.704;10.430;2023-07-09T06:55:43;27.00;99.90
23063;DHT22;11699;43.704;10.430;2023-07-09T06:58:10;27.10;99.90
23063;DHT22;11699;43.704;10.430;2023-07-09T07:00:37;27.30;99.90
23063;DHT22;11699;43.704;10.430;2023-07-09T07:03:06;27.60;99.90
23063;DHT22;11699;43.704;10.430;2023-07-09T07:05:33;28.20;99.90
23063;DHT22;11699;43.704;10.430;2023-07-09T07:08:01;29.40;99.90
23063;DHT22;11699;43.704;10.430;2023-07-09T07:10:28;30.40;99.90
23063;DHT22;11699;43.704;10.430;2023-07-09T07:12:56;31.40;99.90
23063;DHT22;11699;43.704;10.430;2023-07-09T07:15:23;32.10;99.90
23063;DHT22;11699;43.704;10.430;2023-07-09T07:17:50;32.60;99.90
23063;DHT22;11699;43.704;10.430;2023-07-09T07:20:19;32.30;99.90
23063;DHT22;11699;43.704;10.430;2023-07-09T07:22:46;33.50;99.90
23063;DHT22;11699;43.704;10.430;2023-07-09T07:25:14;34.20;99.90
23063;DHT22;11699;43.704;10.430;2023-07-09T07:27:41;34.70;99.90
23063;DHT22;11699;43.704;10.430;2023-07-09T07:30:09;35.30;99.90
23063;DHT22;11699;43.704;10.430;2023-07-09T07:32:37;35.70;99.90
23063;DHT22;11699;43.704;10.430;2023-07-09T07:35:05;35.50;99.90
23063;DHT22;11699;43.704;10.430;2023-07-09T07:37:34;35.10;99.90
23063;DHT22;11699;43.704;10.430;2023-07-09T07:40:01;35.10;99.90
23063;DHT22;11699;43.704;10.430;2023-07-09T07:42:30;35.50;99.90
23063;DHT22;11699;43.704;10.430;2023-07-09T07:44:57;35.50;99.90
23063;DHT22;11699;43.704;10.430;2023-07-09T07:47:24;35.90;99.90
23063;DHT22;11699;43.704;10.430;2023-07-09T07:49:52;36.30;99.90
23063;DHT22;11699;43.704;10.430;2023-07-09T07:52:20;36.70;99.90
23063;DHT22;11699;43.704;10.430;2023-07-09T07:54:49;36.60;99.90
23063;DHT22;11699;43.704;10.430;2023-07-09T07:57:16;36.80;99.90
23063;DHT22;11699;43.704;10.430;2023-07-09T07:59:43;36.80;99.90
23063;DHT22;11699;43.704;10.430;2023-07-09T08:02:13;36.40;99.90
23063;DHT22;11699;43.704;10.430;2023-07-09T08:04:41;36.30;99.90
23063;DHT22;11699;43.704;10.430;2023-07-09T08:07:09;37.00;99.90
23063;DHT22;11699;43.704;10.430;2023-07-09T08:09:36;37.20;99.90
23063;DHT22;11699;43.704;10.430;2023-07-09T08:12:06;37.20;99.90
23063;DHT22;11699;43.704;10.430;2023-07-09T08:14:37;37.20;99.90
23063;DHT22;11699;43.704;10.430;2023-07-09T08:17:05;36.90;99.90
23063;DHT22;11699;43.704;10.430;2023-07-09T08:19:32;36.60;99.90
23063;DHT22;11699;43.704;10.430;2023-07-09T08:22:10;36.80;99.90
23063;DHT22;11699;43.704;10.430;2023-07-09T08:24:37;37.40;99.90
23063;DHT22;11699;43.704;10.430;2023-07-09T08:27:07;37.20;99.70
23063;DHT22;11699;43.704;10.430;2023-07-09T08:29:34;38.00;99.90
23063;DHT22;11699;43.704;10.430;2023-07-09T08:32:01;37.90;99.70
23063;DHT22;11699;43.704;10.430;2023-07-09T08:34:29;38.60;98.90
23063;DHT22;11699;43.704;10.430;2023-07-09T08:36:56;38.40;99.10
23063;DHT22;11699;43.704;10.430;2023-07-09T08:39:23;38.00;98.30
23063;DHT22;11699;43.704;10.430;2023-07-09T08:41:54;38.00;98.70
23063;DHT22;11699;43.704;10.430;2023-07-09T08:44:59;38.40;99.90
23063;DHT22;11699;43.704;10.430;2023-07-09T08:47:33;38.90;99.40
23063;DHT22;11699;43.704;10.430;2023-07-09T08:50:05;38.70;98.20
23063;DHT22;11699;43.704;10.430;2023-07-09T08:52:35;39.30;98.90
23063;DHT22;11699;43.704;10.430;2023-07-09T08:55:06;39.70;97.60
23063;DHT22;11699;43.704;10.430;2023-07-09T08:57:39;39.60;97.00
23063;DHT22;11699;43.704;10.430;2023-07-09T09:00:15;39.70;97.40
23063;DHT22;11699;43.704;10.430;2023-07-09T09:02:49;39.60;97.70
23063;DHT22;11699;43.704;10.430;2023-07-09T09:05:18;40.00;96.90
23063;DHT22;11699;43.704;10.430;2023-07-09T09:07:51;40.10;96.80
23063;DHT22;11699;43.704;10.430;2023-07-09T09:10:29;39.60;97.40
23063;DHT22;11699;43.704;10.430;2023-07-09T09:13:05;40.10;97.50
23063;DHT22;11699;43.704;10.430;2023-07-09T09:15:34;39.90;95.50
23063;DHT22;11699;43.704;10.430;2023-07-09T09:18:18;39.20;96.30
23063;DHT22;11699;43.704;10.430;2023-07-09T09:20:48;39.20;94.90
23063;DHT22;11699;43.704;10.430;2023-07-09T09:23:18;38.90;95.00
23063;DHT22;11699;43.704;10.430;2023-07-09T09:25:50;39.30;95.30
23063;DHT22;11699;43.704;10.430;2023-07-09T09:28:19;39.20;95.00
23063;DHT22;11699;43.704;10.430;2023-07-09T09:30:49;39.10;95.80
23063;DHT22;11699;43.704;10.430;2023-07-09T09:33:17;39.10;94.30
23063;DHT22;11699;43.704;10.430;2023-07-09T09:35:46;39.10;95.20
23063;DHT22;11699;43.704;10.430;2023-07-09T09:38:17;39.20;94.20
23063;DHT22;11699;43.704;10.430;2023-07-09T09:40:44;38.90;96.20
23063;DHT22;11699;43.704;10.430;2023-07-09T09:43:14;38.80;95.80
23063;DHT22;11699;43.704;10.430;2023-07-09T09:45:43;38.70;95.70
23063;DHT22;11699;43.704;10.430;2023-07-09T09:48:16;38.20;95.90
23063;DHT22;11699;43.704;10.430;2023-07-09T09:50:45;38.30;96.10
23063;DHT22;11699;43.704;10.430;2023-07-09T09:53:18;38.60;96.60
23063;DHT22;11699;43.704;10.430;2023-07-09T09:55:47;38.90;95.40
23063;DHT22;11699;43.704;10.430;2023-07-09T09:58:16;39.40;95.70
23063;DHT22;11699;43.704;10.430;2023-07-09T10:00:48;39.30;94.70
23063;DHT22;11699;43.704;10.430;2023-07-09T10:03:18;39.60;97.10
23063;DHT22;11699;43.704;10.430;2023-07-09T10:05:50;39.20;96.00
23063;DHT22;11699;43.704;10.430;2023-07-09T10:08:26;39.00;95.70
23063;DHT22;11699;43.704;10.430;2023-07-09T10:11:07;38.80;95.70
23063;DHT22;11699;43.704;10.430;2023-07-09T10:13:38;39.10;96.80
23063;DHT22;11699;43.704;10.430;2023-07-09T10:16:10;38.50;96.20
23063;DHT22;11699;43.704;10.430;2023-07-09T10:18:51;38.40;96.70
23063;DHT22;11699;43.704;10.430;2023-07-09T10:21:24;38.20;95.80
23063;DHT22;11699;43.704;10.430;2023-07-09T10:24:05;37.40;97.10
23063;DHT22;11699;43.704;10.430;2023-07-09T10:26:42;37.60;97.50
23063;DHT22;11699;43.704;10.430;2023-07-09T10:29:42;38.00;97.40
23063;DHT22;11699;43.704;10.430;2023-07-09T10:32:20;38.70;96.00
23063;DHT22;11699;43.704;10.430;2023-07-09T10:34:55;38.40;96.80
23063;DHT22;11699;43.704;10.430;2023-07-09T10:37:46;38.20;96.50
23063;DHT22;11699;43.704;10.430;2023-07-09T10:40:18;38.20;95.70
23063;DHT22;11699;43.704;10.430;2023-07-09T10:42:52;38.80;95.00
23063;DHT22;11699;43.704;10.430;2023-07-09T10:45:26;39.00;95.00
23063;DHT22;11699;43.704;10.430;2023-07-09T10:47:59;39.20;95.10
23063;DHT22;11699;43.704;10.430;2023-07-09T10:50:31;39.10;95.10
23063;DHT22;11699;43.704;10.430;2023-07-09T10:53:04;38.90;95.50
23063;DHT22;11699;43.704;10.430;2023-07-09T10:55:39;39.60;94.20
23063;DHT22;11699;43.704;10.430;2023-07-09T10:58:19;39.90;94.40
23063;DHT22;11699;43.704;10.430;2023-07-09T11:00:49;39.90;92.80
23063;DHT22;11699;43.704;10.430;2023-07-09T11:03:17;39.20;93.10
23063;DHT22;11699;43.704;10.430;2023-07-09T11:05:49;39.60;95.20
23063;DHT22;11699;43.704;10.430;2023-07-09T11:08:20;39.40;94.90
23063;DHT22;11699;43.704;10.430;2023-07-09T11:10:50;39.60;96.10
23063;DHT22;11699;43.704;10.430;2023-07-09T11:13:24;39.60;94.20
23063;DHT22;11699;43.704;10.430;2023-07-09T11:15:55;39.40;91.90
23063;DHT22;11699;43.704;10.430;2023-07-09T11:18:25;39.40;93.10
23063;DHT22;11699;43.704;10.430;2023-07-09T11:21:04;39.40;93.50
23063;DHT22;11699;43.704;10.430;2023-07-09T11:23:38;39.60;94.20
23063;DHT22;11699;43.704;10.430;2023-07-09T11:26:12;39.40;94.90
23063;DHT22;11699;43.704;10.430;2023-07-09T11:28:45;39.60;94.60
23063;DHT22;11699;43.704;10.430;2023-07-09T11:31:21;39.40;93.80
23063;DHT22;11699;43.704;10.430;2023-07-09T11:33:59;39.40;93.40
23063;DHT22;11699;43.704;10.430;2023-07-09T11:36:30;39.50;92.60
23063;DHT22;11699;43.704;10.430;2023-07-09T11:38:58;39.50;93.80
23063;DHT22;11699;43.704;10.430;2023-07-09T11:41:31;39.70;92.40
23063;DHT22;11699;43.704;10.430;2023-07-09T11:44:04;39.40;91.70
23063;DHT22;11699;43.704;10.430;2023-07-09T11:46:32;39.10;93.70
23063;DHT22;11699;43.704;10.430;2023-07-09T11:49:01;39.30;92.00
23063;DHT22;11699;43.704;10.430;2023-07-09T11:51:37;39.20;95.40
23063;DHT22;11699;43.704;10.430;2023-07-09T11:54:11;39.00;95.90
23063;DHT22;11699;43.704;10.430;2023-07-09T11:56:39;38.90;95.40
23063;DHT22;11699;43.704;10.430;2023-07-09T11:59:07;38.60;96.50
23063;DHT22;11699;43.704;10.430;2023-07-09T12:01:42;38.70;96.20
23063;DHT22;11699;43.704;10.430;2023-07-09T12:04:13;38.30;96.30
23063;DHT22;11699;43.704;10.430;2023-07-09T12:06:42;38.20;97.10
23063;DHT22;11699;43.704;10.430;2023-07-09T12:09:14;38.30;96.70
23063;DHT22;11699;43.704;10.430;2023-07-09T12:11:44;38.40;96.40
23063;DHT22;11699;43.704;10.430;2023-07-09T12:14:12;38.10;96.90
23063;DHT22;11699;43.704;10.430;2023-07-09T12:16:42;38.30;97.40
23063;DHT22;11699;43.704;10.430;2023-07-09T12:19:11;38.30;98.00
23063;DHT22;11699;43.704;10.430;2023-07-09T12:21:42;38.30;98.10
23063;DHT22;11699;43.704;10.430;2023-07-09T12:24:23;38.20;97.30
23063;DHT22;11699;43.704;10.430;2023-07-09T12:26:52;37.90;97.90
23063;DHT22;11699;43.704;10.430;2023-07-09T12:29:19;38.00;97.80
23063;DHT22;11699;43.704;10.430;2023-07-09T12:31:46;38.10;98.50
23063;DHT22;11699;43.704;10.430;2023-07-09T12:34:14;38.00;96.50
23063;DHT22;11699;43.704;10.430;2023-07-09T12:36:46;37.90;96.80
23063;DHT22;11699;43.704;10.430;2023-07-09T12:39:18;37.90;97.30
23063;DHT22;11699;43.704;10.430;2023-07-09T12:41:47;37.80;97.00
23063;DHT22;11699;43.704;10.430;2023-07-09T12:44:17;37.70;97.10
23063;DHT22;11699;43.704;10.430;2023-07-09T12:46:46;37.70;98.50
23063;DHT22;11699;43.704;10.430;2023-07-09T12:49:21;38.20;97.40
23063;DHT22;11699;43.704;10.430;2023-07-09T12:51:53;38.40;96.20
23063;DHT22;11699;43.704;10.430;2023-07-09T12:54:21;38.30;96.70
23063;DHT22;11699;43.704;10.430;2023-07-09T12:56:51;38.20;96.60
23063;DHT22;11699;43.704;10.430;2023-07-09T12:59:20;38.10;96.70
23063;DHT22;11699;43.704;10.430;2023-07-09T13:01:49;38.10;96.70
23063;DHT22;11699;43.704;10.430;2023-07-09T13:04:17;37.80;97.30
23063;DHT22;11699;43.704;10.430;2023-07-09T13:06:44;37.80;97.90
23063;DHT22;11699;43.704;10.430;2023-07-09T13:09:19;37.90;97.00
23063;DHT22;11699;43.704;10.430;2023-07-09T13:11:48;38.00;96.20
23063;DHT22;11699;43.704;10.430;2023-07-09T13:14:19;37.90;96.50
23063;DHT22;11699;43.704;10.430;2023-07-09T13:16:46;38.00;96.40
23063;DHT22;11699;43.704;10.430;2023-07-09T13:19:14;37.80;96.50
23063;DHT22;11699;43.704;10.430;2023-07-09T13:21:41;37.70;96.70
23063;DHT22;11699;43.704;10.430;2023-07-09T13:24:16;37.60;96.80
23063;DHT22;11699;43.704;10.430;2023-07-09T13:26:43;37.70;96.80
23063;DHT22;11699;43.704;10.430;2023-07-09T13:29:17;37.60;96.20
23063;DHT22;11699;43.704;10.430;2023-07-09T13:31:46;37.40;97.00
23063;DHT22;11699;43.704;10.430;2023-07-09T13:34:19;37.70;95.90
23063;DHT22;11699;43.704;10.430;2023-07-09T13:36:47;37.50;96.60
23063;DHT22;11699;43.704;10.430;2023-07-09T13:39:16;37.50;96.20
23063;DHT22;11699;43.704;10.430;2023-07-09T13:41:44;37.40;96.40
23063;DHT22;11699;43.704;10.430;2023-07-09T13:44:14;37.50;96.20
23063;DHT22;11699;43.704;10.430;2023-07-09T13:46:42;37.40;96.50
23063;DHT22;11699;43.704;10.430;2023-07-09T13:49:11;37.20;96.70
23063;DHT22;11699;43.704;10.430;2023-07-09T13:51:40;37.00;97.00
23063;DHT22;11699;43.704;10.430;2023-07-09T13:54:16;37.10;97.30
23063;DHT22;11699;43.704;10.430;2023-07-09T13:56:44;37.00;96.70
23063;DHT22;11699;43.704;10.430;2023-07-09T13:59:14;36.90;96.90
23063;DHT22;11699;43.704;10.430;2023-07-09T14:01:42;36.90;98.30
23063;DHT22;11699;43.704;10.430;2023-07-09T14:04:11;37.10;97.70
23063;DHT22;11699;43.704;10.430;2023-07-09T14:06:38;37.00;97.80
23063;DHT22;11699;43.704;10.430;2023-07-09T14:09:06;37.10;98.10
23063;DHT22;11699;43.704;10.430;2023-07-09T14:11:38;37.00;98.80
23063;DHT22;11699;43.704;10.430;2023-07-09T14:14:15;37.10;98.70
23063;DHT22;11699;43.704;10.430;2023-07-09T14:16:42;37.40;99.30
23063;DHT22;11699;43.704;10.430;2023-07-09T14:19:13;37.10;98.70
23063;DHT22;11699;43.704;10.430;2023-07-09T14:21:40;37.00;98.30
23063;DHT22;11699;43.704;10.430;2023-07-09T14:24:17;36.90;98.10
23063;DHT22;11699;43.704;10.430;2023-07-09T14:26:47;36.70;98.20
23063;DHT22;11699;43.704;10.430;2023-07-09T14:29:14;36.60;97.70
23063;DHT22;11699;43.704;10.430;2023-07-09T14:31:42;36.50;99.40
23063;DHT22;11699;43.704;10.430;2023-07-09T14:34:22;36.60;98.80
23063;DHT22;11699;43.704;10.430;2023-07-09T14:36:51;36.70;98.50
23063;DHT22;11699;43.704;10.430;2023-07-09T14:39:18;37.00;99.20
23063;DHT22;11699;43.704;10.430;2023-07-09T14:41:47;37.00;99.10
23063;DHT22;11699;43.704;10.430;2023-07-09T14:44:21;36.60;99.20
23063;DHT22;11699;43.704;10.430;2023-07-09T14:46:49;36.40;99.10
23063;DHT22;11699;43.704;10.430;2023-07-09T14:49:16;36.00;98.60
23063;DHT22;11699;43.704;10.430;2023-07-09T14:51:43;36.00;99.30
23063;DHT22;11699;43.704;10.430;2023-07-09T14:54:18;35.80;98.90
23063;DHT22;11699;43.704;10.430;2023-07-09T14:56:48;35.80;98.90
23063;DHT22;11699;43.704;10.430;2023-07-09T14:59:15;35.90;98.40
23063;DHT22;11699;43.704;10.430;2023-07-09T15:01:43;35.70;98.20
23063;DHT22;11699;43.704;10.430;2023-07-09T15:04:27;35.50;98.90
23063;DHT22;11699;43.704;10.430;2023-07-09T15:06:56;35.60;99.20
23063;DHT22;11699;43.704;10.430;2023-07-09T15:09:25;35.60;99.50
23063;DHT22;11699;43.704;10.430;2023-07-09T15:11:55;35.60;99.90
23063;DHT22;11699;43.704;10.430;2023-07-09T15:14:24;35.90;99.90
23063;DHT22;11699;43.704;10.430;2023-07-09T15:16:52;36.10;98.80
23063;DHT22;11699;43.704;10.430;2023-07-09T15:19:21;36.10;99.50
23063;DHT22;11699;43.704;10.430;2023-07-09T15:21:49;36.10;99.90
23063;DHT22;11699;43.704;10.430;2023-07-09T15:24:23;36.10;98.90
23063;DHT22;11699;43.704;10.430;2023-07-09T15:26:54;36.10;99.10
23063;DHT22;11699;43.704;10.430;2023-07-09T15:29:21;35.90;98.60
23063;DHT22;11699;43.704;10.430;2023-07-09T15:31:48;35.70;98.70
23063;DHT22;11699;43.704;10.430;2023-07-09T15:34:16;35.60;98.00